sensor_id;sensor_type;location;lat;lon;timestamp;pressure;altitude;pressure_sealevel;temperature;humidity
55550;BME280;41397;49.972;18.944;2023-11-19T00:02:38;102426.32;;;5.88;66.72
55550;BME280;41397;49.972;18.944;2023-11-19T00:05:40;102426.48;;;5.84;66.72
55550;BME280;41397;49.972;18.944;2023-11-19T00:08:42;102419.45;;;5.78;67.05
55550;BME280;41397;49.972;18.944;2023-11-19T00:11:47;102426.71;;;5.77;67.24
55550;BME280;41397;49.972;18.944;2023-11-19T00:14:49;102415.92;;;5.76;67.01
55550;BME280;41397;49.972;18.944;2023-11-19T00:17:51;102419.55;;;5.75;67.02
55550;BME280;41397;49.972;18.944;2023-11-19T00:20:52;102428.66;;;5.74;67.13
55550;BME280;41397;49.972;18.944;2023-11-19T00:23:53;102421.35;;;5.76;67.47
55550;BME280;41397;49.972;18.944;2023-11-19T00:26:55;102424.07;;;5.76;67.21
55550;BME280;41397;49.972;18.944;2023-11-19T00:29:57;102423.16;;;5.75;67.20
55550;BME280;41397;49.972;18.944;2023-11-19T00:32:59;102420.63;;;5.71;67.53
55550;BME280;41397;49.972;18.944;2023-11-19T00:36:00;102409.05;;;5.66;67.67
55550;BME280;41397;49.972;18.944;2023-11-19T00:39:03;102406.16;;;5.70;67.48
55550;BME280;41397;49.972;18.944;2023-11-19T00:42:07;102408.89;;;5.70;67.53
55550;BME280;41397;49.972;18.944;2023-11-19T00:45:09;102420.66;;;5.69;67.83
55550;BME280;41397;49.972;18.944;2023-11-19T00:48:13;102411.61;;;5.70;67.51
55550;BME280;41397;49.972;18.944;2023-11-19T00:51:14;102409.77;;;5.71;67.34
55550;BME280;41397;49.972;18.944;2023-11-19T00:54:15;102403.45;;;5.70;67.61
55550;BME280;41397;49.972;18.944;2023-11-19T00:57:17;102402.63;;;5.68;67.94
55550;BME280;41397;49.972;18.944;2023-11-19T01:00:18;102403.49;;;5.69;67.34
55550;BME280;41397;49.972;18.944;2023-11-19T01:03:20;102404.45;;;5.68;67.91
55550;BME280;41397;49.972;18.944;2023-11-19T01:06:28;102400.78;;;5.69;67.63
55550;BME280;41397;49.972;18.944;2023-11-19T01:09:30;102411.79;;;5.64;67.59
55550;BME280;41397;49.972;18.944;2023-11-19T01:12:40;102406.55;;;5.60;67.71
55550;BME280;41397;49.972;18.944;2023-11-19T01:15:42;102401.06;;;5.61;67.95
55550;BME280;41397;49.972;18.944;2023-11-19T01:18:44;102401.93;;;5.62;67.55
55550;BME280;41397;49.972;18.944;2023-11-19T01:21:47;102389.36;;;5.59;67.89
55550;BME280;41397;49.972;18.944;2023-11-19T01:24:49;102381.32;;;5.56;67.63
55550;BME280;41397;49.972;18.944;2023-11-19T01:27:50;102382.32;;;5.53;67.63
55550;BME280;41397;49.972;18.944;2023-11-19T01:30:52;102377.88;;;5.51;67.84
55550;BME280;41397;49.972;18.944;2023-11-19T01:33:53;102359.92;;;5.48;67.87
55550;BME280;41397;49.972;18.944;2023-11-19T01:36:57;102350.93;;;5.46;67.82
55550;BME280;41397;49.972;18.944;2023-11-19T01:39:58;102336.37;;;5.49;67.81
55550;BME280;41397;49.972;18.944;2023-11-19T01:42:59;102335.65;;;5.44;67.99
55550;BME280;41397;49.972;18.944;2023-11-19T01:46:02;102342.83;;;5.45;68.00
55550;BME280;41397;49.972;18.944;2023-11-19T01:49:05;102333.77;;;5.46;67.83
55550;BME280;41397;49.972;18.944;2023-11-19T01:52:07;102314.86;;;5.43;67.88
55550;BME280;41397;49.972;18.944;2023-11-19T01:55:09;102307.74;;;5.40;68.02
55550;BME280;41397;49.972;18.944;2023-11-19T01:58:12;102301.48;;;5.38;67.98
55550;BME280;41397;49.972;18.944;2023-11-19T02:01:14;102308.05;;;5.31;68.17
55550;BME280;41397;49.972;18.944;2023-11-19T02:04:16;102308.90;;;5.33;67.97
55550;BME280;41397;49.972;18.944;2023-11-19T02:07:18;102304.35;;;5.33;67.81
55550;BME280;41397;49.972;18.944;2023-11-19T02:10:19;102280.01;;;5.32;68.17
55550;BME280;41397;49.972;18.944;2023-11-19T02:13:21;102274.01;;;5.22;68.27
55550;BME280;41397;49.972;18.944;2023-11-19T02:16:23;102257.97;;;5.16;68.76
55550;BME280;41397;49.972;18.944;2023-11-19T02:19:24;102251.74;;;5.12;68.68
55550;BME280;41397;49.972;18.944;2023-11-19T02:22:25;102250.09;;;5.08;68.72
55550;BME280;41397;49.972;18.944;2023-11-19T02:25:32;102225.20;;;4.97;68.88
55550;BME280;41397;49.972;18.944;2023-11-19T02:28:36;102212.67;;;4.93;68.91
55550;BME280;41397;49.972;18.944;2023-11-19T02:31:38;102201.33;;;4.82;69.59
55550;BME280;41397;49.972;18.944;2023-11-19T02:34:39;102211.14;;;4.86;69.38
55550;BME280;41397;49.972;18.944;2023-11-19T02:37:40;102210.34;;;4.82;69.55
55550;BME280;41397;49.972;18.944;2023-11-19T02:40:41;102200.23;;;4.87;69.66
55550;BME280;41397;49.972;18.944;2023-11-19T02:43:43;102206.45;;;4.91;69.59
55550;BME280;41397;49.972;18.944;2023-11-19T02:46:44;102202.89;;;4.89;69.40
55550;BME280;41397;49.972;18.944;2023-11-19T02:49:49;102191.20;;;4.87;69.41
55550;BME280;41397;49.972;18.944;2023-11-19T02:52:52;102169.49;;;4.88;69.20
55550;BME280;41397;49.972;18.944;2023-11-19T02:55:59;102167.70;;;4.87;69.29
55550;BME280;41397;49.972;18.944;2023-11-19T02:59:11;102168.68;;;4.85;69.53
55550;BME280;41397;49.972;18.944;2023-11-19T03:02:22;102156.92;;;4.86;69.19
55550;BME280;41397;49.972;18.944;2023-11-19T03:05:30;102144.26;;;4.86;69.06
55550;BME280;41397;49.972;18.944;2023-11-19T03:08:34;102162.38;;;4.84;69.15
55550;BME280;41397;49.972;18.944;2023-11-19T03:11:36;102178.50;;;4.89;68.89
55550;BME280;41397;49.972;18.944;2023-11-19T03:14:38;102171.25;;;4.89;69.13
55550;BME280;41397;49.972;18.944;2023-11-19T03:17:39;102163.00;;;4.93;69.02
55550;BME280;41397;49.972;18.944;2023-11-19T03:20:41;102149.40;;;4.94;69.02
55550;BME280;41397;49.972;18.944;2023-11-19T03:23:42;102141.98;;;4.99;69.09
55550;BME280;41397;49.972;18.944;2023-11-19T03:26:48;102119.50;;;4.96;69.01
55550;BME280;41397;49.972;18.944;2023-11-19T03:29:51;102110.54;;;4.94;69.32
55550;BME280;41397;49.972;18.944;2023-11-19T03:32:52;102122.30;;;4.94;69.10
55550;BME280;41397;49.972;18.944;2023-11-19T03:35:56;102118.67;;;4.94;69.40
55550;BME280;41397;49.972;18.944;2023-11-19T03:38:57;102109.01;;;4.86;69.50
55550;BME280;41397;49.972;18.944;2023-11-19T03:41:59;102110.45;;;4.72;69.87
55550;BME280;41397;49.972;18.944;2023-11-19T03:45:01;102114.33;;;4.64;70.45
55550;BME280;41397;49.972;18.944;2023-11-19T03:48:05;102104.38;;;4.65;70.42
55550;BME280;41397;49.972;18.944;2023-11-19T03:51:06;102084.84;;;4.55;70.64
55550;BME280;41397;49.972;18.944;2023-11-19T03:54:07;102074.00;;;4.55;70.68
55550;BME280;41397;49.972;18.944;2023-11-19T03:57:09;102074.08;;;4.54;70.57
55550;BME280;41397;49.972;18.944;2023-11-19T04:00:14;102067.48;;;4.61;70.82
55550;BME280;41397;49.972;18.944;2023-11-19T04:03:15;102042.93;;;4.65;70.64
55550;BME280;41397;49.972;18.944;2023-11-19T04:06:17;102049.34;;;4.63;70.76
55550;BME280;41397;49.972;18.944;2023-11-19T04:09:19;102047.59;;;4.62;70.77
55550;BME280;41397;49.972;18.944;2023-11-19T04:12:20;102051.05;;;4.65;70.55
55550;BME280;41397;49.972;18.944;2023-11-19T04:15:23;102042.01;;;4.66;70.74
55550;BME280;41397;49.972;18.944;2023-11-19T04:18:25;102035.88;;;4.61;70.55
55550;BME280;41397;49.972;18.944;2023-11-19T04:21:26;102047.64;;;4.60;70.66
55550;BME280;41397;49.972;18.944;2023-11-19T04:24:27;102061.26;;;4.59;70.86
55550;BME280;41397;49.972;18.944;2023-11-19T04:27:29;102064.72;;;4.62;70.57
55550;BME280;41397;49.972;18.944;2023-11-19T04:30:30;102063.69;;;4.66;70.66
55550;BME280;41397;49.972;18.944;2023-11-19T04:33:32;102045.40;;;4.72;70.52
55550;BME280;41397;49.972;18.944;2023-11-19T04:36:34;102036.28;;;4.74;70.33
55550;BME280;41397;49.972;18.944;2023-11-19T04:39:38;102027.94;;;4.80;70.19
55550;BME280;41397;49.972;18.944;2023-11-19T04:42:39;102029.56;;;4.84;70.01
55550;BME280;41397;49.972;18.944;2023-11-19T04:45:41;102024.98;;;4.86;69.78
55550;BME280;41397;49.972;18.944;2023-11-19T04:48:43;102008.60;;;4.89;69.85
55550;BME280;41397;49.972;18.944;2023-11-19T04:51:46;101995.93;;;4.90;69.65
55550;BME280;41397;49.972;18.944;2023-11-19T04:54:48;101999.47;;;4.92;69.88
55550;BME280;41397;49.972;18.944;2023-11-19T04:57:49;101993.04;;;4.95;69.70
55550;BME280;41397;49.972;18.944;2023-11-19T05:00:51;102002.80;;;4.99;69.50
55550;BME280;41397;49.972;18.944;2023-11-19T05:03:53;101998.34;;;4.98;69.29
55550;BME280;41397;49.972;18.944;2023-11-19T05:06:54;102002.77;;;5.00;69.52
55550;BME280;41397;49.972;18.944;2023-11-19T05:09:56;101987.46;;;4.99;69.29
55550;BME280;41397;49.972;18.944;2023-11-19T05:12:57;101965.80;;;4.98;69.31
55550;BME280;41397;49.972;18.944;2023-11-19T05:15:59;101971.53;;;4.90;69.63
55550;BME280;41397;49.972;18.944;2023-11-19T05:19:00;101968.23;;;4.82;69.73
55550;BME280;41397;49.972;18.944;2023-11-19T05:22:03;101963.10;;;4.74;70.16
55550;BME280;41397;49.972;18.944;2023-11-19T05:25:05;101954.93;;;4.76;70.14
55550;BME280;41397;49.972;18.944;2023-11-19T05:28:07;101963.06;;;4.76;70.23
55550;BME280;41397;49.972;18.944;2023-11-19T05:31:08;101964.06;;;4.73;70.27
55550;BME280;41397;49.972;18.944;2023-11-19T05:34:11;101970.35;;;4.74;70.26
55550;BME280;41397;49.972;18.944;2023-11-19T05:37:14;101976.62;;;4.76;70.05
55550;BME280;41397;49.972;18.944;2023-11-19T05:40:16;101972.02;;;4.78;70.16
55550;BME280;41397;49.972;18.944;2023-11-19T05:43:19;101964.77;;;4.78;69.82
55550;BME280;41397;49.972;18.944;2023-11-19T05:46:21;101950.34;;;4.78;70.33
55550;BME280;41397;49.972;18.944;2023-11-19T05:49:23;101934.01;;;4.79;70.27
55550;BME280;41397;49.972;18.944;2023-11-19T05:52:25;101934.09;;;4.78;70.50
55550;BME280;41397;49.972;18.944;2023-11-19T05:55:26;101949.43;;;4.77;70.40
55550;BME280;41397;49.972;18.944;2023-11-19T05:58:29;101976.49;;;4.79;70.66
55550;BME280;41397;49.972;18.944;2023-11-19T06:01:31;101961.77;;;4.86;70.69
55550;BME280;41397;49.972;18.944;2023-11-19T06:04:32;101967.95;;;4.89;70.88
55550;BME280;41397;49.972;18.944;2023-11-19T06:07:34;101973.31;;;4.91;70.90
55550;BME280;41397;49.972;18.944;2023-11-19T06:10:39;101964.16;;;4.94;71.13
55550;BME280;41397;49.972;18.944;2023-11-19T06:13:41;101960.34;;;4.99;70.42
55550;BME280;41397;49.972;18.944;2023-11-19T06:16:44;101949.29;;;5.04;70.73
55550;BME280;41397;49.972;18.944;2023-11-19T06:19:45;101947.36;;;5.07;70.88
55550;BME280;41397;49.972;18.944;2023-11-19T06:22:47;101949.04;;;5.10;71.06
55550;BME280;41397;49.972;18.944;2023-11-19T06:25:48;101923.01;;;5.06;71.18
55550;BME280;41397;49.972;18.944;2023-11-19T06:28:50;101913.17;;;5.03;71.03
55550;BME280;41397;49.972;18.944;2023-11-19T06:31:51;101886.93;;;5.04;71.33
55550;BME280;41397;49.972;18.944;2023-11-19T06:34:52;101878.05;;;5.00;71.50
55550;BME280;41397;49.972;18.944;2023-11-19T06:37:54;101879.89;;;5.00;71.50
55550;BME280;41397;49.972;18.944;2023-11-19T06:40:56;101889.72;;;5.02;71.30
55550;BME280;41397;49.972;18.944;2023-11-19T06:43:58;101875.35;;;5.00;71.40
55550;BME280;41397;49.972;18.944;2023-11-19T06:47:00;101865.38;;;5.01;71.44
55550;BME280;41397;49.972;18.944;2023-11-19T06:50:03;101860.70;;;5.04;71.63
55550;BME280;41397;49.972;18.944;2023-11-19T06:53:06;101864.24;;;5.06;71.81
55550;BME280;41397;49.972;18.944;2023-11-19T06:56:17;101867.03;;;5.05;71.69
55550;BME280;41397;49.972;18.944;2023-11-19T06:59:19;101864.10;;;5.09;71.41
55550;BME280;41397;49.972;18.944;2023-11-19T07:02:20;101859.45;;;5.13;71.86
55550;BME280;41397;49.972;18.944;2023-11-19T07:05:22;101858.50;;;5.14;71.46
55550;BME280;41397;49.972;18.944;2023-11-19T07:08:25;101848.48;;;5.16;71.48
55550;BME280;41397;49.972;18.944;2023-11-19T07:11:28;101846.56;;;5.18;71.42
55550;BME280;41397;49.972;18.944;2023-11-19T07:14:30;101851.05;;;5.19;71.42
55550;BME280;41397;49.972;18.944;2023-11-19T07:17:32;101854.65;;;5.20;71.57
55550;BME280;41397;49.972;18.944;2023-11-19T07:20:33;101851.10;;;5.18;71.65
55550;BME280;41397;49.972;18.944;2023-11-19T07:23:34;101865.45;;;5.21;71.74
55550;BME280;41397;49.972;18.944;2023-11-19T07:26:39;101865.23;;;5.26;71.76
55550;BME280;41397;49.972;18.944;2023-11-19T07:29:43;101851.79;;;5.23;71.97
55550;BME280;41397;49.972;18.944;2023-11-19T07:32:45;101859.74;;;5.27;72.03
55550;BME280;41397;49.972;18.944;2023-11-19T07:35:47;101858.18;;;5.22;71.95
55550;BME280;41397;49.972;18.944;2023-11-19T07:38:49;101847.11;;;5.26;71.69
55550;BME280;41397;49.972;18.944;2023-11-19T07:41:51;101845.37;;;5.25;72.21
55550;BME280;41397;49.972;18.944;2023-11-19T07:44:52;101839.80;;;5.28;72.38
55550;BME280;41397;49.972;18.944;2023-11-19T07:47:58;101836.21;;;5.28;72.05
55550;BME280;41397;49.972;18.944;2023-11-19T07:51:06;101828.03;;;5.29;72.08
55550;BME280;41397;49.972;18.944;2023-11-19T07:54:08;101820.63;;;5.33;72.09
55550;BME280;41397;49.972;18.944;2023-11-19T07:57:10;101809.78;;;5.33;72.05
55550;BME280;41397;49.972;18.944;2023-11-19T08:00:12;101799.94;;;5.30;72.07
55550;BME280;41397;49.972;18.944;2023-11-19T08:03:14;101797.28;;;5.29;72.03
55550;BME280;41397;49.972;18.944;2023-11-19T08:06:15;101789.05;;;5.32;72.14
55550;BME280;41397;49.972;18.944;2023-11-19T08:09:17;101788.68;;;5.40;72.29
55550;BME280;41397;49.972;18.944;2023-11-19T08:12:19;101775.34;;;5.35;72.05
55550;BME280;41397;49.972;18.944;2023-11-19T08:15:22;101783.48;;;5.35;72.08
55550;BME280;41397;49.972;18.944;2023-11-19T08:18:24;101779.61;;;5.41;72.08
55550;BME280;41397;49.972;18.944;2023-11-19T08:21:25;101774.91;;;5.44;72.03
55550;BME280;41397;49.972;18.944;2023-11-19T08:24:28;101775.40;;;5.54;72.08
55550;BME280;41397;49.972;18.944;2023-11-19T08:27:30;101765.19;;;5.59;71.84
55550;BME280;41397;49.972;18.944;2023-11-19T08:30:31;101758.75;;;5.62;71.80
55550;BME280;41397;49.972;18.944;2023-11-19T08:33:33;101757.88;;;5.61;71.64
55550;BME280;41397;49.972;18.944;2023-11-19T08:36:35;101760.52;;;5.63;71.61
55550;BME280;41397;49.972;18.944;2023-11-19T08:39:38;101768.72;;;5.61;71.56
55550;BME280;41397;49.972;18.944;2023-11-19T08:42:39;101763.16;;;5.64;71.52
55550;BME280;41397;49.972;18.944;2023-11-19T08:45:41;101762.13;;;5.67;71.60
55550;BME280;41397;49.972;18.944;2023-11-19T08:48:43;101754.76;;;5.70;71.57
55550;BME280;41397;49.972;18.944;2023-11-19T08:51:46;101756.45;;;5.73;71.34
55550;BME280;41397;49.972;18.944;2023-11-19T08:54:48;101753.65;;;5.74;71.45
55550;BME280;41397;49.972;18.944;2023-11-19T08:57:49;101741.82;;;5.75;71.29
55550;BME280;41397;49.972;18.944;2023-11-19T09:00:51;101735.52;;;5.75;71.17
55550;BME280;41397;49.972;18.944;2023-11-19T09:03:54;101731.94;;;5.74;71.25
55550;BME280;41397;49.972;18.944;2023-11-19T09:06:58;101726.30;;;5.79;71.33
55550;BME280;41397;49.972;18.944;2023-11-19T09:09:59;101710.84;;;5.81;71.37
55550;BME280;41397;49.972;18.944;2023-11-19T09:13:00;101706.03;;;5.86;71.42
55550;BME280;41397;49.972;18.944;2023-11-19T09:16:03;101699.52;;;5.90;71.45
55550;BME280;41397;49.972;18.944;2023-11-19T09:19:05;101689.36;;;5.95;71.42
55550;BME280;41397;49.972;18.944;2023-11-19T09:22:06;101690.35;;;5.93;71.24
55550;BME280;41397;49.972;18.944;2023-11-19T09:25:08;101696.72;;;5.92;71.38
55550;BME280;41397;49.972;18.944;2023-11-19T09:28:11;101691.92;;;5.98;71.63
55550;BME280;41397;49.972;18.944;2023-11-19T09:31:17;101678.04;;;6.05;71.82
55550;BME280;41397;49.972;18.944;2023-11-19T09:34:19;101674.95;;;6.12;71.86
55550;BME280;41397;49.972;18.944;2023-11-19T09:37:21;101655.63;;;6.18;71.84
55550;BME280;41397;49.972;18.944;2023-11-19T09:40:23;101649.82;;;6.26;71.96
55550;BME280;41397;49.972;18.944;2023-11-19T09:43:27;101638.36;;;6.38;71.46
55550;BME280;41397;49.972;18.944;2023-11-19T09:46:29;101644.77;;;6.55;71.14
55550;BME280;41397;49.972;18.944;2023-11-19T09:49:32;101627.58;;;6.72;70.49
55550;BME280;41397;49.972;18.944;2023-11-19T09:52:34;101620.61;;;6.83;69.46
55550;BME280;41397;49.972;18.944;2023-11-19T09:55:36;101605.46;;;6.95;68.90
55550;BME280;41397;49.972;18.944;2023-11-19T09:58:37;101601.40;;;7.04;68.28
55550;BME280;41397;49.972;18.944;2023-11-19T10:01:39;101583.86;;;7.09;67.70
55550;BME280;41397;49.972;18.944;2023-11-19T10:04:42;101581.91;;;7.11;67.33
55550;BME280;41397;49.972;18.944;2023-11-19T10:07:45;101577.10;;;7.17;66.77
55550;BME280;41397;49.972;18.944;2023-11-19T10:10:47;101569.68;;;7.20;66.93
55550;BME280;41397;49.972;18.944;2023-11-19T10:13:49;101563.16;;;7.23;66.23
55550;BME280;41397;49.972;18.944;2023-11-19T10:16:54;101541.49;;;7.21;65.26
55550;BME280;41397;49.972;18.944;2023-11-19T10:20:02;101533.34;;;7.21;64.90
55550;BME280;41397;49.972;18.944;2023-11-19T10:23:05;101521.16;;;7.28;64.79
55550;BME280;41397;49.972;18.944;2023-11-19T10:26:07;101525.87;;;7.25;64.42
55550;BME280;41397;49.972;18.944;2023-11-19T10:29:12;101531.07;;;7.29;65.03
55550;BME280;41397;49.972;18.944;2023-11-19T10:32:15;101524.48;;;7.33;64.90
55550;BME280;41397;49.972;18.944;2023-11-19T10:35:16;101517.91;;;7.38;64.93
55550;BME280;41397;49.972;18.944;2023-11-19T10:38:18;101510.62;;;7.38;64.83
55550;BME280;41397;49.972;18.944;2023-11-19T10:44:33;101497.98;;;7.37;64.73
55550;BME280;41397;49.972;18.944;2023-11-19T10:47:40;101494.39;;;7.37;64.86
55550;BME280;41397;49.972;18.944;2023-11-19T10:50:43;101493.41;;;7.38;65.12
55550;BME280;41397;49.972;18.944;2023-11-19T10:53:45;101495.16;;;7.39;65.56
55550;BME280;41397;49.972;18.944;2023-11-19T10:56:54;101488.16;;;7.34;65.52
55550;BME280;41397;49.972;18.944;2023-11-19T11:00:01;101488.16;;;7.34;66.12
55550;BME280;41397;49.972;18.944;2023-11-19T11:03:10;101477.52;;;7.30;66.68
55550;BME280;41397;49.972;18.944;2023-11-19T11:06:13;101478.68;;;7.26;67.46
55550;BME280;41397;49.972;18.944;2023-11-19T11:09:15;101471.46;;;7.25;67.71
55550;BME280;41397;49.972;18.944;2023-11-19T11:12:17;101461.55;;;7.24;68.79
55550;BME280;41397;49.972;18.944;2023-11-19T11:15:27;101465.22;;;7.23;69.03
55550;BME280;41397;49.972;18.944;2023-11-19T11:18:30;101459.02;;;7.21;69.25
55550;BME280;41397;49.972;18.944;2023-11-19T11:21:32;101451.80;;;7.20;69.95
55550;BME280;41397;49.972;18.944;2023-11-19T11:25:27;101445.66;;;7.16;70.10
55550;BME280;41397;49.972;18.944;2023-11-19T11:28:03;101451.30;;;7.13;70.82
55550;BME280;41397;49.972;18.944;2023-11-19T11:34:30;101429.16;;;7.03;71.74
55550;BME280;41397;49.972;18.944;2023-11-19T11:37:36;101429.27;;;7.02;71.53
55550;BME280;41397;49.972;18.944;2023-11-19T11:40:39;101424.01;;;6.99;71.66
55550;BME280;41397;49.972;18.944;2023-11-19T11:43:45;101419.61;;;6.96;71.73
55550;BME280;41397;49.972;18.944;2023-11-19T11:46:56;101414.94;;;6.98;72.05
55550;BME280;41397;49.972;18.944;2023-11-19T11:50:06;101407.86;;;6.96;72.39
55550;BME280;41397;49.972;18.944;2023-11-19T11:53:21;101406.09;;;6.95;72.71
55550;BME280;41397;49.972;18.944;2023-11-19T11:56:32;101391.62;;;6.94;72.95
55550;BME280;41397;49.972;18.944;2023-11-19T12:02:48;101379.52;;;7.00;73.52
55550;BME280;41397;49.972;18.944;2023-11-19T12:05:50;101368.46;;;7.03;73.27
55550;BME280;41397;49.972;18.944;2023-11-19T12:08:51;101370.13;;;7.05;73.47
55550;BME280;41397;49.972;18.944;2023-11-19T12:15:08;101356.16;;;7.11;73.73
55550;BME280;41397;49.972;18.944;2023-11-19T12:18:19;101353.98;;;7.18;74.08
55550;BME280;41397;49.972;18.944;2023-11-19T12:21:30;101346.42;;;7.23;74.57
55550;BME280;41397;49.972;18.944;2023-11-19T12:24:32;101342.54;;;7.27;74.54
55550;BME280;41397;49.972;18.944;2023-11-19T12:27:44;101340.50;;;7.31;74.68
55550;BME280;41397;49.972;18.944;2023-11-19T12:30:46;101340.43;;;7.32;75.16
55550;BME280;41397;49.972;18.944;2023-11-19T12:33:54;101331.29;;;7.33;74.86
55550;BME280;41397;49.972;18.944;2023-11-19T12:36:55;101332.08;;;7.36;74.79
55550;BME280;41397;49.972;18.944;2023-11-19T12:39:58;101324.03;;;7.34;74.74
55550;BME280;41397;49.972;18.944;2023-11-19T12:42:59;101331.13;;;7.37;74.85
55550;BME280;41397;49.972;18.944;2023-11-19T12:46:01;101317.53;;;7.37;75.03
55550;BME280;41397;49.972;18.944;2023-11-19T12:49:03;101325.58;;;7.38;74.92
55550;BME280;41397;49.972;18.944;2023-11-19T12:52:37;101313.90;;;7.36;74.72
55550;BME280;41397;49.972;18.944;2023-11-19T12:55:38;101318.40;;;7.37;75.25
55550;BME280;41397;49.972;18.944;2023-11-19T12:58:40;101324.70;;;7.38;75.51
55550;BME280;41397;49.972;18.944;2023-11-19T13:02:08;101303.03;;;7.36;75.44
55550;BME280;41397;49.972;18.944;2023-11-19T13:08:21;101308.58;;;7.34;75.70
55550;BME280;41397;49.972;18.944;2023-11-19T13:11:33;101308.58;;;7.34;75.88
55550;BME280;41397;49.972;18.944;2023-11-19T13:14:37;101310.49;;;7.32;76.27
55550;BME280;41397;49.972;18.944;2023-11-19T13:17:39;101308.58;;;7.34;76.08
55550;BME280;41397;49.972;18.944;2023-11-19T13:20:40;101290.66;;;7.30;76.38
55550;BME280;41397;49.972;18.944;2023-11-19T13:23:42;101283.38;;;7.31;76.77
55550;BME280;41397;49.972;18.944;2023-11-19T13:26:44;101281.44;;;7.33;76.71
55550;BME280;41397;49.972;18.944;2023-11-19T13:29:47;101283.22;;;7.34;77.10
55550;BME280;41397;49.972;18.944;2023-11-19T13:32:49;101270.56;;;7.33;77.14
55550;BME280;41397;49.972;18.944;2023-11-19T13:35:50;101270.75;;;7.30;77.29
55550;BME280;41397;49.972;18.944;2023-11-19T13:38:51;101264.44;;;7.29;77.60
55550;BME280;41397;49.972;18.944;2023-11-19T13:41:59;101275.32;;;7.29;77.55
55550;BME280;41397;49.972;18.944;2023-11-19T13:45:03;101271.02;;;7.25;77.92
55550;BME280;41397;49.972;18.944;2023-11-19T13:48:06;101268.23;;;7.27;77.87
55550;BME280;41397;49.972;18.944;2023-11-19T13:51:08;101267.24;;;7.28;77.84
55550;BME280;41397;49.972;18.944;2023-11-19T13:54:11;101267.16;;;7.29;77.63
55550;BME280;41397;49.972;18.944;2023-11-19T13:57:15;101259.87;;;7.30;77.47
55550;BME280;41397;49.972;18.944;2023-11-19T14:00:19;101257.14;;;7.30;77.43
55550;BME280;41397;49.972;18.944;2023-11-19T14:03:22;101259.67;;;7.33;77.86
55550;BME280;41397;49.972;18.944;2023-11-19T14:06:23;101246.19;;;7.31;77.53
55550;BME280;41397;49.972;18.944;2023-11-19T14:09:24;101264.94;;;7.36;77.73
55550;BME280;41397;49.972;18.944;2023-11-19T14:12:28;101267.76;;;7.34;78.23
55550;BME280;41397;49.972;18.944;2023-11-19T14:15:29;101264.06;;;7.36;77.94
55550;BME280;41397;49.972;18.944;2023-11-19T14:18:33;101250.46;;;7.36;78.14
55550;BME280;41397;49.972;18.944;2023-11-19T14:21:36;101258.62;;;7.36;78.08
55550;BME280;41397;49.972;18.944;2023-11-19T14:24:37;101253.96;;;7.38;78.24
55550;BME280;41397;49.972;18.944;2023-11-19T14:27:43;101257.67;;;7.37;78.74
55550;BME280;41397;49.972;18.944;2023-11-19T14:30:46;101251.13;;;7.39;78.48
55550;BME280;41397;49.972;18.944;2023-11-19T14:33:55;101257.37;;;7.41;78.58
55550;BME280;41397;49.972;18.944;2023-11-19T14:36:57;101260.38;;;7.37;78.67
55550;BME280;41397;49.972;18.944;2023-11-19T14:40:01;101260.20;;;7.40;78.61
55550;BME280;41397;49.972;18.944;2023-11-19T14:43:06;101249.31;;;7.40;78.63
55550;BME280;41397;49.972;18.944;2023-11-19T14:46:11;101246.48;;;7.41;78.85
55550;BME280;41397;49.972;18.944;2023-11-19T14:49:12;101244.55;;;7.43;78.91
55550;BME280;41397;49.972;18.944;2023-11-19T14:52:15;101245.53;;;7.42;79.05
55550;BME280;41397;49.972;18.944;2023-11-19T14:55:17;101239.19;;;7.42;79.26
55550;BME280;41397;49.972;18.944;2023-11-19T14:58:18;101233.75;;;7.42;79.63
55550;BME280;41397;49.972;18.944;2023-11-19T15:01:19;101239.19;;;7.42;79.69
55550;BME280;41397;49.972;18.944;2023-11-19T15:04:21;101240.96;;;7.43;79.75
55550;BME280;41397;49.972;18.944;2023-11-19T15:07:22;101236.20;;;7.46;79.85
55550;BME280;41397;49.972;18.944;2023-11-19T15:10:24;101237.18;;;7.45;79.93
55550;BME280;41397;49.972;18.944;2023-11-19T15:13:26;101250.87;;;7.44;80.44
55550;BME280;41397;49.972;18.944;2023-11-19T15:16:27;101241.75;;;7.45;80.49
55550;BME280;41397;49.972;18.944;2023-11-19T15:19:35;101247.08;;;7.46;80.96
55550;BME280;41397;49.972;18.944;2023-11-19T15:22:37;101247.75;;;7.50;81.20
55550;BME280;41397;49.972;18.944;2023-11-19T15:25:38;101240.49;;;7.50;81.01
55550;BME280;41397;49.972;18.944;2023-11-19T15:28:40;101244.88;;;7.53;80.79
55550;BME280;41397;49.972;18.944;2023-11-19T15:31:41;101243.77;;;7.55;80.96
55550;BME280;41397;49.972;18.944;2023-11-19T15:34:42;101242.72;;;7.58;80.78
55550;BME280;41397;49.972;18.944;2023-11-19T15:37:44;101239.04;;;7.59;80.89
55550;BME280;41397;49.972;18.944;2023-11-19T15:40:46;101242.91;;;7.55;81.13
55550;BME280;41397;49.972;18.944;2023-11-19T15:43:47;101249.93;;;7.59;81.42
55550;BME280;41397;49.972;18.944;2023-11-19T15:46:48;101246.02;;;7.63;81.08
55550;BME280;41397;49.972;18.944;2023-11-19T15:49:50;101252.34;;;7.64;80.91
55550;BME280;41397;49.972;18.944;2023-11-19T15:52:51;101244.17;;;7.64;81.23
55550;BME280;41397;49.972;18.944;2023-11-19T15:55:53;101239.32;;;7.69;80.67
55550;BME280;41397;49.972;18.944;2023-11-19T15:58:54;101255.58;;;7.70;80.59
55550;BME280;41397;49.972;18.944;2023-11-19T16:01:56;101248.40;;;7.69;80.75
55550;BME280;41397;49.972;18.944;2023-11-19T16:04:58;101250.02;;;7.72;81.09
55550;BME280;41397;49.972;18.944;2023-11-19T16:07:59;101244.30;;;7.76;80.52
55550;BME280;41397;49.972;18.944;2023-11-19T16:11:01;101249.65;;;7.78;80.48
55550;BME280;41397;49.972;18.944;2023-11-19T16:14:03;101239.52;;;7.80;80.47